sensor_id;sensor_type;location;lat;lon;timestamp;P1;durP1;ratioP1;P2;durP2;ratioP2
41631;SDS011;37452;51.938;4.624;2023-07-16T00:01:34;5.88;;;1.95;;
41631;SDS011;37452;51.938;4.624;2023-07-16T00:03:59;9.32;;;2.15;;
41631;SDS011;37452;51.938;4.624;2023-07-16T00:06:24;10.63;;;2.50;;
41631;SDS011;37452;51.938;4.624;2023-07-16T00:08:50;6.68;;;2.03;;
41631;SDS011;37452;51.938;4.624;2023-07-16T00:11:15;3.90;;;1.60;;
41631;SDS011;37452;51.938;4.624;2023-07-16T00:13:40;9.35;;;2.35;;
41631;SDS011;37452;51.938;4.624;2023-07-16T00:16:11;9.10;;;2.00;;
41631;SDS011;37452;51.938;4.624;2023-07-16T00:18:36;8.25;;;2.35;;
41631;SDS011;37452;51.938;4.624;2023-07-16T00:21:02;14.38;;;2.15;;
41631;SDS011;37452;51.938;4.624;2023-07-16T00:23:27;7.30;;;2.33;;
41631;SDS011;37452;51.938;4.624;2023-07-16T00:25:52;11.80;;;2.13;;
41631;SDS011;37452;51.938;4.624;2023-07-16T00:28:18;12.18;;;2.65;;
41631;SDS011;37452;51.938;4.624;2023-07-16T00:30:43;6.28;;;2.20;;
41631;SDS011;37452;51.938;4.624;2023-07-16T00:33:08;5.07;;;1.83;;
41631;SDS011;37452;51.938;4.624;2023-07-16T00:35:34;9.85;;;2.33;;
41631;SDS011;37452;51.938;4.624;2023-07-16T00:37:59;7.97;;;1.92;;
41631;SDS011;37452;51.938;4.624;2023-07-16T00:40:25;6.50;;;1.80;;
41631;SDS011;37452;51.938;4.624;2023-07-16T00:42:50;6.03;;;2.00;;
41631;SDS011;37452;51.938;4.624;2023-07-16T00:45:15;6.57;;;2.05;;
41631;SDS011;37452;51.938;4.624;2023-07-16T00:47:41;7.00;;;2.08;;
41631;SDS011;37452;51.938;4.624;2023-07-16T00:50:09;8.55;;;2.78;;
41631;SDS011;37452;51.938;4.624;2023-07-16T00:52:36;6.15;;;2.10;;
41631;SDS011;37452;51.938;4.624;2023-07-16T00:55:02;11.45;;;2.17;;
41631;SDS011;37452;51.938;4.624;2023-07-16T00:57:27;4.78;;;2.00;;
41631;SDS011;37452;51.938;4.624;2023-07-16T00:59:54;8.25;;;2.40;;
41631;SDS011;37452;51.938;4.624;2023-07-16T01:02:19;8.30;;;2.33;;
41631;SDS011;37452;51.938;4.624;2023-07-16T01:04:45;11.07;;;3.20;;
41631;SDS011;37452;51.938;4.624;2023-07-16T01:07:11;13.35;;;3.05;;
41631;SDS011;37452;51.938;4.624;2023-07-16T01:09:40;6.10;;;2.53;;
41631;SDS011;37452;51.938;4.624;2023-07-16T01:12:07;9.55;;;2.45;;
41631;SDS011;37452;51.938;4.624;2023-07-16T01:14:33;10.32;;;2.33;;
41631;SDS011;37452;51.938;4.624;2023-07-16T01:17:02;9.90;;;2.63;;
41631;SDS011;37452;51.938;4.624;2023-07-16T01:19:32;9.15;;;2.47;;
41631;SDS011;37452;51.938;4.624;2023-07-16T01:22:17;6.53;;;2.80;;
41631;SDS011;37452;51.938;4.624;2023-07-16T01:30:16;10.70;;;3.13;;
41631;SDS011;37452;51.938;4.624;2023-07-16T01:32:44;8.00;;;2.88;;
41631;SDS011;37452;51.938;4.624;2023-07-16T01:35:10;6.82;;;2.70;;
41631;SDS011;37452;51.938;4.624;2023-07-16T01:37:37;9.65;;;2.85;;
41631;SDS011;37452;51.938;4.624;2023-07-16T01:40:03;12.45;;;2.80;;
41631;SDS011;37452;51.938;4.624;2023-07-16T01:42:28;7.30;;;2.72;;
41631;SDS011;37452;51.938;4.624;2023-07-16T01:44:54;10.38;;;3.47;;
41631;SDS011;37452;51.938;4.624;2023-07-16T01:47:23;10.35;;;3.60;;
41631;SDS011;37452;51.938;4.624;2023-07-16T01:50:00;11.20;;;3.45;;
41631;SDS011;37452;51.938;4.624;2023-07-16T01:52:25;9.15;;;3.30;;
41631;SDS011;37452;51.938;4.624;2023-07-16T01:54:51;10.45;;;3.25;;
41631;SDS011;37452;51.938;4.624;2023-07-16T01:57:16;8.07;;;2.63;;
41631;SDS011;37452;51.938;4.624;2023-07-16T01:59:42;9.02;;;3.45;;
41631;SDS011;37452;51.938;4.624;2023-07-16T02:02:07;10.13;;;4.32;;
41631;SDS011;37452;51.938;4.624;2023-07-16T02:04:32;6.50;;;3.38;;
41631;SDS011;37452;51.938;4.624;2023-07-16T02:06:58;9.27;;;3.03;;
41631;SDS011;37452;51.938;4.624;2023-07-16T02:09:23;11.75;;;3.35;;
41631;SDS011;37452;51.938;4.624;2023-07-16T02:11:50;12.65;;;3.45;;
41631;SDS011;37452;51.938;4.624;2023-07-16T02:14:15;9.45;;;4.18;;
41631;SDS011;37452;51.938;4.624;2023-07-16T02:16:41;9.43;;;3.22;;
41631;SDS011;37452;51.938;4.624;2023-07-16T02:19:06;7.40;;;3.38;;
41631;SDS011;37452;51.938;4.624;2023-07-16T02:21:31;7.75;;;3.03;;
41631;SDS011;37452;51.938;4.624;2023-07-16T02:23:57;10.98;;;3.63;;
41631;SDS011;37452;51.938;4.624;2023-07-16T02:26:22;14.80;;;3.45;;
41631;SDS011;37452;51.938;4.624;2023-07-16T02:28:48;10.27;;;3.38;;
41631;SDS011;37452;51.938;4.624;2023-07-16T02:31:13;11.52;;;3.35;;
41631;SDS011;37452;51.938;4.624;2023-07-16T02:33:38;11.43;;;3.13;;
41631;SDS011;37452;51.938;4.624;2023-07-16T02:36:04;11.13;;;4.03;;
41631;SDS011;37452;51.938;4.624;2023-07-16T02:38:29;11.85;;;3.30;;
41631;SDS011;37452;51.938;4.624;2023-07-16T02:40:54;10.77;;;3.47;;
41631;SDS011;37452;51.938;4.624;2023-07-16T02:43:20;12.73;;;3.83;;
41631;SDS011;37452;51.938;4.624;2023-07-16T02:45:45;9.75;;;3.38;;
41631;SDS011;37452;51.938;4.624;2023-07-16T02:48:10;10.63;;;3.53;;
41631;SDS011;37452;51.938;4.624;2023-07-16T02:50:36;13.07;;;2.83;;
41631;SDS011;37452;51.938;4.624;2023-07-16T02:53:05;7.97;;;2.75;;
41631;SDS011;37452;51.938;4.624;2023-07-16T02:55:32;7.55;;;3.17;;
41631;SDS011;37452;51.938;4.624;2023-07-16T02:57:57;10.40;;;3.25;;
41631;SDS011;37452;51.938;4.624;2023-07-16T03:00:23;9.93;;;2.67;;
41631;SDS011;37452;51.938;4.624;2023-07-16T03:02:48;11.07;;;3.40;;
41631;SDS011;37452;51.938;4.624;2023-07-16T03:05:16;9.38;;;2.85;;
41631;SDS011;37452;51.938;4.624;2023-07-16T03:07:42;9.88;;;2.65;;
41631;SDS011;37452;51.938;4.624;2023-07-16T03:10:08;10.55;;;2.55;;
41631;SDS011;37452;51.938;4.624;2023-07-16T03:12:34;7.60;;;2.53;;
41631;SDS011;37452;51.938;4.624;2023-07-16T03:14:59;6.50;;;2.78;;
41631;SDS011;37452;51.938;4.624;2023-07-16T03:17:24;6.90;;;2.80;;
41631;SDS011;37452;51.938;4.624;2023-07-16T03:19:50;8.10;;;2.85;;
41631;SDS011;37452;51.938;4.624;2023-07-16T03:22:15;10.93;;;3.20;;
41631;SDS011;37452;51.938;4.624;2023-07-16T03:24:41;8.27;;;3.33;;
41631;SDS011;37452;51.938;4.624;2023-07-16T03:27:06;12.27;;;3.63;;
41631;SDS011;37452;51.938;4.624;2023-07-16T03:29:32;8.90;;;2.75;;
41631;SDS011;37452;51.938;4.624;2023-07-16T03:31:58;9.43;;;3.13;;
41631;SDS011;37452;51.938;4.624;2023-07-16T03:34:23;9.18;;;3.40;;
41631;SDS011;37452;51.938;4.624;2023-07-16T03:36:49;10.85;;;4.07;;
41631;SDS011;37452;51.938;4.624;2023-07-16T03:39:14;7.97;;;3.38;;
41631;SDS011;37452;51.938;4.624;2023-07-16T03:41:39;12.60;;;3.30;;
41631;SDS011;37452;51.938;4.624;2023-07-16T03:44:05;7.97;;;3.50;;
41631;SDS011;37452;51.938;4.624;2023-07-16T03:46:30;10.50;;;3.90;;
41631;SDS011;37452;51.938;4.624;2023-07-16T03:48:55;8.15;;;3.15;;
41631;SDS011;37452;51.938;4.624;2023-07-16T03:51:21;8.95;;;3.58;;
41631;SDS011;37452;51.938;4.624;2023-07-16T03:53:46;10.95;;;4.03;;
41631;SDS011;37452;51.938;4.624;2023-07-16T03:56:11;9.52;;;3.85;;
41631;SDS011;37452;51.938;4.624;2023-07-16T03:58:37;13.43;;;3.90;;
41631;SDS011;37452;51.938;4.624;2023-07-16T04:01:02;7.82;;;3.58;;
41631;SDS011;37452;51.938;4.624;2023-07-16T04:03:27;7.25;;;3.90;;
41631;SDS011;37452;51.938;4.624;2023-07-16T04:06:00;9.80;;;3.42;;
41631;SDS011;37452;51.938;4.624;2023-07-16T04:08:29;6.68;;;3.30;;
41631;SDS011;37452;51.938;4.624;2023-07-16T04:10:55;10.68;;;3.25;;
41631;SDS011;37452;51.938;4.624;2023-07-16T04:13:20;6.55;;;2.92;;
41631;SDS011;37452;51.938;4.624;2023-07-16T04:15:45;10.73;;;4.00;;
41631;SDS011;37452;51.938;4.624;2023-07-16T04:18:11;10.15;;;3.72;;
41631;SDS011;37452;51.938;4.624;2023-07-16T04:20:36;10.43;;;3.85;;
41631;SDS011;37452;51.938;4.624;2023-07-16T04:23:01;7.32;;;3.50;;
41631;SDS011;37452;51.938;4.624;2023-07-16T04:25:27;12.63;;;3.63;;
41631;SDS011;37452;51.938;4.624;2023-07-16T04:27:52;11.00;;;3.53;;
41631;SDS011;37452;51.938;4.624;2023-07-16T04:30:17;9.43;;;3.67;;
41631;SDS011;37452;51.938;4.624;2023-07-16T04:32:43;11.32;;;3.75;;
41631;SDS011;37452;51.938;4.624;2023-07-16T04:35:08;11.27;;;4.28;;
41631;SDS011;37452;51.938;4.624;2023-07-16T04:37:33;12.77;;;4.07;;
41631;SDS011;37452;51.938;4.624;2023-07-16T04:39:59;6.55;;;2.97;;
41631;SDS011;37452;51.938;4.624;2023-07-16T04:42:24;9.60;;;3.65;;
41631;SDS011;37452;51.938;4.624;2023-07-16T04:44:49;12.18;;;4.55;;
41631;SDS011;37452;51.938;4.624;2023-07-16T04:47:15;12.52;;;3.83;;
41631;SDS011;37452;51.938;4.624;2023-07-16T04:49:40;9.70;;;3.83;;
41631;SDS011;37452;51.938;4.624;2023-07-16T04:52:06;11.73;;;4.47;;
41631;SDS011;37452;51.938;4.624;2023-07-16T04:54:35;8.00;;;3.58;;
41631;SDS011;37452;51.938;4.624;2023-07-16T04:57:01;13.38;;;4.20;;
41631;SDS011;37452;51.938;4.624;2023-07-16T04:59:27;10.45;;;4.15;;
41631;SDS011;37452;51.938;4.624;2023-07-16T05:01:52;10.60;;;4.07;;
41631;SDS011;37452;51.938;4.624;2023-07-16T05:04:17;8.23;;;3.08;;
41631;SDS011;37452;51.938;4.624;2023-07-16T05:06:43;8.38;;;3.35;;
41631;SDS011;37452;51.938;4.624;2023-07-16T05:09:08;7.18;;;3.42;;
41631;SDS011;37452;51.938;4.624;2023-07-16T05:11:33;10.60;;;4.00;;
41631;SDS011;37452;51.938;4.624;2023-07-16T05:13:59;8.73;;;3.80;;
41631;SDS011;37452;51.938;4.624;2023-07-16T05:16:24;9.77;;;3.67;;
41631;SDS011;37452;51.938;4.624;2023-07-16T05:18:49;11.40;;;4.68;;
41631;SDS011;37452;51.938;4.624;2023-07-16T05:21:15;9.77;;;3.83;;
41631;SDS011;37452;51.938;4.624;2023-07-16T05:23:40;7.03;;;3.80;;
41631;SDS011;37452;51.938;4.624;2023-07-16T05:26:05;9.77;;;3.85;;
41631;SDS011;37452;51.938;4.624;2023-07-16T05:28:31;8.00;;;4.15;;
41631;SDS011;37452;51.938;4.624;2023-07-16T05:31:02;7.50;;;3.55;;
41631;SDS011;37452;51.938;4.624;2023-07-16T05:33:28;7.38;;;3.38;;
41631;SDS011;37452;51.938;4.624;2023-07-16T05:35:54;7.80;;;3.78;;
41631;SDS011;37452;51.938;4.624;2023-07-16T05:38:19;8.90;;;3.88;;
41631;SDS011;37452;51.938;4.624;2023-07-16T05:40:44;9.48;;;4.20;;
41631;SDS011;37452;51.938;4.624;2023-07-16T05:43:10;14.32;;;4.10;;
41631;SDS011;37452;51.938;4.624;2023-07-16T05:45:36;8.70;;;3.70;;
41631;SDS011;37452;51.938;4.624;2023-07-16T05:48:01;9.07;;;3.67;;
41631;SDS011;37452;51.938;4.624;2023-07-16T05:50:27;11.00;;;4.05;;
41631;SDS011;37452;51.938;4.624;2023-07-16T05:52:52;12.63;;;4.35;;
41631;SDS011;37452;51.938;4.624;2023-07-16T05:55:17;6.78;;;3.85;;
41631;SDS011;37452;51.938;4.624;2023-07-16T05:57:43;11.02;;;4.28;;
41631;SDS011;37452;51.938;4.624;2023-07-16T06:00:08;12.07;;;4.35;;
41631;SDS011;37452;51.938;4.624;2023-07-16T06:02:35;8.95;;;4.40;;
41631;SDS011;37452;51.938;4.624;2023-07-16T06:05:00;10.50;;;4.13;;
41631;SDS011;37452;51.938;4.624;2023-07-16T06:07:26;12.38;;;4.32;;
41631;SDS011;37452;51.938;4.624;2023-07-16T06:09:51;9.60;;;4.40;;
41631;SDS011;37452;51.938;4.624;2023-07-16T06:12:16;9.15;;;3.97;;
41631;SDS011;37452;51.938;4.624;2023-07-16T06:14:42;10.13;;;4.57;;
41631;SDS011;37452;51.938;4.624;2023-07-16T06:17:07;10.75;;;4.57;;
41631;SDS011;37452;51.938;4.624;2023-07-16T06:19:32;6.78;;;4.00;;
41631;SDS011;37452;51.938;4.624;2023-07-16T06:21:58;9.27;;;3.85;;
41631;SDS011;37452;51.938;4.624;2023-07-16T06:24:23;9.75;;;3.85;;
41631;SDS011;37452;51.938;4.624;2023-07-16T06:26:48;9.63;;;4.20;;
41631;SDS011;37452;51.938;4.624;2023-07-16T06:29:14;10.75;;;4.97;;
41631;SDS011;37452;51.938;4.624;2023-07-16T06:31:41;10.63;;;3.85;;
41631;SDS011;37452;51.938;4.624;2023-07-16T06:34:07;8.48;;;4.25;;
41631;SDS011;37452;51.938;4.624;2023-07-16T06:36:32;9.82;;;4.57;;
41631;SDS011;37452;51.938;4.624;2023-07-16T06:38:58;8.02;;;3.72;;
41631;SDS011;37452;51.938;4.624;2023-07-16T06:41:25;9.20;;;4.03;;
41631;SDS011;37452;51.938;4.624;2023-07-16T06:43:50;12.70;;;4.00;;
41631;SDS011;37452;51.938;4.624;2023-07-16T06:46:16;7.07;;;3.53;;
41631;SDS011;37452;51.938;4.624;2023-07-16T06:48:41;16.45;;;4.70;;
41631;SDS011;37452;51.938;4.624;2023-07-16T06:51:06;10.05;;;4.25;;
41631;SDS011;37452;51.938;4.624;2023-07-16T06:53:32;8.70;;;4.00;;
41631;SDS011;37452;51.938;4.624;2023-07-16T06:55:58;9.65;;;4.75;;
41631;SDS011;37452;51.938;4.624;2023-07-16T06:58:30;10.20;;;3.88;;
41631;SDS011;37452;51.938;4.624;2023-07-16T07:00:57;12.88;;;4.20;;
41631;SDS011;37452;51.938;4.624;2023-07-16T07:03:22;12.45;;;4.63;;
41631;SDS011;37452;51.938;4.624;2023-07-16T07:05:47;11.10;;;4.43;;
41631;SDS011;37452;51.938;4.624;2023-07-16T07:08:13;10.43;;;4.40;;
41631;SDS011;37452;51.938;4.624;2023-07-16T07:10:38;10.55;;;4.68;;
41631;SDS011;37452;51.938;4.624;2023-07-16T07:13:04;11.43;;;4.28;;
41631;SDS011;37452;51.938;4.624;2023-07-16T07:15:30;12.40;;;4.47;;
41631;SDS011;37452;51.938;4.624;2023-07-16T07:17:55;14.13;;;5.40;;
41631;SDS011;37452;51.938;4.624;2023-07-16T07:20:20;12.35;;;4.30;;
41631;SDS011;37452;51.938;4.624;2023-07-16T07:22:46;13.43;;;4.18;;
41631;SDS011;37452;51.938;4.624;2023-07-16T07:25:11;13.40;;;4.60;;
41631;SDS011;37452;51.938;4.624;2023-07-16T07:27:36;11.30;;;5.85;;
41631;SDS011;37452;51.938;4.624;2023-07-16T07:30:02;8.23;;;3.95;;
41631;SDS011;37452;51.938;4.624;2023-07-16T07:32:28;9.75;;;4.72;;
41631;SDS011;37452;51.938;4.624;2023-07-16T07:34:54;12.25;;;5.20;;
41631;SDS011;37452;51.938;4.624;2023-07-16T07:37:19;12.18;;;4.95;;
41631;SDS011;37452;51.938;4.624;2023-07-16T07:39:44;13.68;;;5.28;;
41631;SDS011;37452;51.938;4.624;2023-07-16T07:42:13;12.38;;;5.30;;
41631;SDS011;37452;51.938;4.624;2023-07-16T07:44:38;10.13;;;4.82;;
41631;SDS011;37452;51.938;4.624;2023-07-16T07:47:04;14.10;;;4.65;;
41631;SDS011;37452;51.938;4.624;2023-07-16T07:49:29;12.48;;;4.80;;
41631;SDS011;37452;51.938;4.624;2023-07-16T07:51:55;13.57;;;5.35;;
41631;SDS011;37452;51.938;4.624;2023-07-16T07:54:20;9.25;;;5.15;;
41631;SDS011;37452;51.938;4.624;2023-07-16T07:56:45;10.10;;;4.15;;
41631;SDS011;37452;51.938;4.624;2023-07-16T07:59:11;10.30;;;4.43;;
41631;SDS011;37452;51.938;4.624;2023-07-16T08:01:36;9.32;;;4.30;;
41631;SDS011;37452;51.938;4.624;2023-07-16T08:04:02;11.65;;;5.30;;
41631;SDS011;37452;51.938;4.624;2023-07-16T08:06:27;9.05;;;4.28;;
41631;SDS011;37452;51.938;4.624;2023-07-16T08:08:53;10.35;;;4.93;;
41631;SDS011;37452;51.938;4.624;2023-07-16T08:11:18;9.77;;;4.20;;
41631;SDS011;37452;51.938;4.624;2023-07-16T08:13:43;14.13;;;4.78;;
41631;SDS011;37452;51.938;4.624;2023-07-16T08:16:09;16.60;;;5.65;;
41631;SDS011;37452;51.938;4.624;2023-07-16T08:18:34;11.32;;;4.35;;
41631;SDS011;37452;51.938;4.624;2023-07-16T08:21:00;10.75;;;4.65;;
41631;SDS011;37452;51.938;4.624;2023-07-16T08:23:25;13.25;;;4.82;;
41631;SDS011;37452;51.938;4.624;2023-07-16T08:25:50;10.80;;;4.82;;
41631;SDS011;37452;51.938;4.624;2023-07-16T08:28:16;12.27;;;5.18;;
41631;SDS011;37452;51.938;4.624;2023-07-16T08:30:41;12.18;;;4.97;;
41631;SDS011;37452;51.938;4.624;2023-07-16T08:33:07;11.10;;;4.80;;
41631;SDS011;37452;51.938;4.624;2023-07-16T08:35:32;9.02;;;4.40;;
41631;SDS011;37452;51.938;4.624;2023-07-16T08:37:57;9.68;;;4.30;;
41631;SDS011;37452;51.938;4.624;2023-07-16T08:40:23;12.82;;;5.00;;
41631;SDS011;37452;51.938;4.624;2023-07-16T08:42:49;10.27;;;4.28;;
41631;SDS011;37452;51.938;4.624;2023-07-16T08:45:15;9.35;;;4.60;;
41631;SDS011;37452;51.938;4.624;2023-07-16T08:47:43;13.43;;;5.28;;
41631;SDS011;37452;51.938;4.624;2023-07-16T08:50:09;12.00;;;4.10;;
41631;SDS011;37452;51.938;4.624;2023-07-16T08:52:34;12.93;;;4.88;;
41631;SDS011;37452;51.938;4.624;2023-07-16T08:55:00;11.75;;;4.20;;
41631;SDS011;37452;51.938;4.624;2023-07-16T08:57:25;9.45;;;4.53;;
41631;SDS011;37452;51.938;4.624;2023-07-16T08:59:52;10.30;;;4.80;;
41631;SDS011;37452;51.938;4.624;2023-07-16T09:02:17;7.88;;;3.72;;
41631;SDS011;37452;51.938;4.624;2023-07-16T09:04:44;11.00;;;4.15;;
41631;SDS011;37452;51.938;4.624;2023-07-16T09:07:11;11.57;;;4.75;;
41631;SDS011;37452;51.938;4.624;2023-07-16T09:09:36;8.82;;;4.05;;
41631;SDS011;37452;51.938;4.624;2023-07-16T09:12:02;9.23;;;4.03;;
41631;SDS011;37452;51.938;4.624;2023-07-16T09:14:27;13.65;;;3.72;;
41631;SDS011;37452;51.938;4.624;2023-07-16T09:16:53;13.75;;;4.45;;
41631;SDS011;37452;51.938;4.624;2023-07-16T09:19:19;11.85;;;3.47;;
41631;SDS011;37452;51.938;4.624;2023-07-16T09:21:48;12.13;;;4.63;;
41631;SDS011;37452;51.938;4.624;2023-07-16T09:24:14;9.48;;;4.25;;
41631;SDS011;37452;51.938;4.624;2023-07-16T09:26:47;10.95;;;4.28;;
41631;SDS011;37452;51.938;4.624;2023-07-16T09:29:16;8.85;;;3.30;;
41631;SDS011;37452;51.938;4.624;2023-07-16T09:31:54;6.40;;;2.58;;
41631;SDS011;37452;51.938;4.624;2023-07-16T09:34:20;7.68;;;3.20;;
41631;SDS011;37452;51.938;4.624;2023-07-16T09:36:49;9.27;;;3.50;;
41631;SDS011;37452;51.938;4.624;2023-07-16T09:39:16;7.85;;;3.00;;
41631;SDS011;37452;51.938;4.624;2023-07-16T09:41:43;7.05;;;3.33;;
41631;SDS011;37452;51.938;4.624;2023-07-16T09:44:09;8.70;;;3.85;;
41631;SDS011;37452;51.938;4.624;2023-07-16T09:46:35;8.15;;;4.18;;
41631;SDS011;37452;51.938;4.624;2023-07-16T09:49:01;8.20;;;4.35;;
41631;SDS011;37452;51.938;4.624;2023-07-16T09:51:26;9.52;;;3.75;;
41631;SDS011;37452;51.938;4.624;2023-07-16T09:53:55;7.38;;;4.10;;
41631;SDS011;37452;51.938;4.624;2023-07-16T09:56:22;10.00;;;3.92;;
41631;SDS011;37452;51.938;4.624;2023-07-16T09:58:54;7.40;;;3.75;;
41631;SDS011;37452;51.938;4.624;2023-07-16T10:01:20;9.35;;;4.07;;
41631;SDS011;37452;51.938;4.624;2023-07-16T10:03:49;8.13;;;3.83;;
41631;SDS011;37452;51.938;4.624;2023-07-16T10:06:15;11.48;;;4.43;;
41631;SDS011;37452;51.938;4.624;2023-07-16T10:08:48;8.23;;;4.00;;
41631;SDS011;37452;51.938;4.624;2023-07-16T10:11:15;6.55;;;3.65;;
41631;SDS011;37452;51.938;4.624;2023-07-16T10:13:42;7.57;;;3.45;;
41631;SDS011;37452;51.938;4.624;2023-07-16T10:16:07;6.70;;;2.95;;
41631;SDS011;37452;51.938;4.624;2023-07-16T10:18:35;6.43;;;3.10;;
41631;SDS011;37452;51.938;4.624;2023-07-16T10:21:06;10.57;;;3.53;;
41631;SDS011;37452;51.938;4.624;2023-07-16T10:26:04;10.68;;;3.08;;
41631;SDS011;37452;51.938;4.624;2023-07-16T10:28:34;4.80;;;2.47;;
41631;SDS011;37452;51.938;4.624;2023-07-16T10:31:03;9.80;;;2.40;;
41631;SDS011;37452;51.938;4.624;2023-07-16T10:33:28;6.22;;;2.75;;
41631;SDS011;37452;51.938;4.624;2023-07-16T10:35:55;8.40;;;2.55;;
41631;SDS011;37452;51.938;4.624;2023-07-16T10:38:22;6.75;;;2.85;;
41631;SDS011;37452;51.938;4.624;2023-07-16T10:40:47;6.43;;;2.47;;
41631;SDS011;37452;51.938;4.624;2023-07-16T10:43:13;7.95;;;2.30;;
41631;SDS011;37452;51.938;4.624;2023-07-16T10:45:39;4.68;;;2.50;;
41631;SDS011;37452;51.938;4.624;2023-07-16T10:48:05;5.57;;;2.60;;
41631;SDS011;37452;51.938;4.624;2023-07-16T10:50:34;3.83;;;2.13;;
41631;SDS011;37452;51.938;4.624;2023-07-16T10:53:00;5.88;;;2.60;;
41631;SDS011;37452;51.938;4.624;2023-07-16T10:55:26;7.03;;;2.10;;
41631;SDS011;37452;51.938;4.624;2023-07-16T10:57:53;6.43;;;2.08;;
41631;SDS011;37452;51.938;4.624;2023-07-16T11:00:19;5.55;;;1.85;;
41631;SDS011;37452;51.938;4.624;2023-07-16T11:02:46;7.43;;;2.20;;
41631;SDS011;37452;51.938;4.624;2023-07-16T11:05:15;5.45;;;2.05;;
41631;SDS011;37452;51.938;4.624;2023-07-16T11:07:50;5.38;;;1.95;;
41631;SDS011;37452;51.938;4.624;2023-07-16T11:10:16;5.57;;;1.83;;
41631;SDS011;37452;51.938;4.624;2023-07-16T11:12:42;6.45;;;2.33;;
41631;SDS011;37452;51.938;4.624;2023-07-16T11:15:08;6.60;;;1.92;;
41631;SDS011;37452;51.938;4.624;2023-07-16T11:17:36;4.70;;;1.65;;
41631;SDS011;37452;51.938;4.624;2023-07-16T11:20:04;3.55;;;2.20;;
41631;SDS011;37452;51.938;4.624;2023-07-16T11:22:36;5.18;;;1.83;;
41631;SDS011;37452;51.938;4.624;2023-07-16T11:25:03;4.25;;;1.88;;
41631;SDS011;37452;51.938;4.624;2023-07-16T11:27:32;3.80;;;1.98;;
41631;SDS011;37452;51.938;4.624;2023-07-16T11:29:58;5.80;;;2.20;;
41631;SDS011;37452;51.938;4.624;2023-07-16T11:34:56;5.07;;;2.25;;
41631;SDS011;37452;51.938;4.624;2023-07-16T11:37:26;7.93;;;2.35;;
41631;SDS011;37452;51.938;4.624;2023-07-16T11:39:56;11.48;;;2.60;;
41631;SDS011;37452;51.938;4.624;2023-07-16T11:42:29;6.13;;;1.92;;
41631;SDS011;37452;51.938;4.624;2023-07-16T11:44:55;5.95;;;1.92;;
41631;SDS011;37452;51.938;4.624;2023-07-16T11:47:21;7.25;;;2.22;;
41631;SDS011;37452;51.938;4.624;2023-07-16T11:49:48;7.13;;;2.15;;
41631;SDS011;37452;51.938;4.624;2023-07-16T11:52:13;7.53;;;2.60;;
41631;SDS011;37452;51.938;4.624;2023-07-16T11:54:39;3.70;;;1.58;;
41631;SDS011;37452;51.938;4.624;2023-07-16T11:57:04;4.93;;;1.70;;
41631;SDS011;37452;51.938;4.624;2023-07-16T11:59:30;4.25;;;1.63;;
41631;SDS011;37452;51.938;4.624;2023-07-16T12:01:56;9.98;;;1.75;;
41631;SDS011;37452;51.938;4.624;2023-07-16T12:04:21;4.53;;;1.55;;
41631;SDS011;37452;51.938;4.624;2023-07-16T12:06:46;8.93;;;1.60;;
41631;SDS011;37452;51.938;4.624;2023-07-16T12:09:12;5.18;;;1.30;;
41631;SDS011;37452;51.938;4.624;2023-07-16T12:11:37;4.32;;;1.35;;
41631;SDS011;37452;51.938;4.624;2023-07-16T12:14:03;7.35;;;1.55;;
41631;SDS011;37452;51.938;4.624;2023-07-16T12:16:29;4.38;;;1.45;;
41631;SDS011;37452;51.938;4.624;2023-07-16T12:18:55;5.82;;;1.10;;
41631;SDS011;37452;51.938;4.624;2023-07-16T12:21:20;3.42;;;1.00;;
41631;SDS011;37452;51.938;4.624;2023-07-16T12:23:45;6.90;;;1.25;;
41631;SDS011;37452;51.938;4.624;2023-07-16T12:26:10;8.85;;;1.30;;
41631;SDS011;37452;51.938;4.624;2023-07-16T12:28:36;6.32;;;1.73;;
41631;SDS011;37452;51.938;4.624;2023-07-16T12:31:02;5.07;;;1.08;;
41631;SDS011;37452;51.938;4.624;2023-07-16T12:33:27;6.68;;;1.25;;
41631;SDS011;37452;51.938;4.624;2023-07-16T12:35:52;3.30;;;1.20;;
41631;SDS011;37452;51.938;4.624;2023-07-16T12:38:18;5.05;;;1.05;;
41631;SDS011;37452;51.938;4.624;2023-07-16T12:40:44;5.80;;;1.05;;
41631;SDS011;37452;51.938;4.624;2023-07-16T12:43:09;4.25;;;1.17;;
41631;SDS011;37452;51.938;4.624;2023-07-16T12:45:34;4.35;;;1.25;;
41631;SDS011;37452;51.938;4.624;2023-07-16T12:48:00;3.20;;;0.90;;
41631;SDS011;37452;51.938;4.624;2023-07-16T12:50:25;3.55;;;0.90;;
41631;SDS011;37452;51.938;4.624;2023-07-16T12:52:52;6.43;;;1.48;;
41631;SDS011;37452;51.938;4.624;2023-07-16T12:55:18;4.28;;;1.20;;
41631;SDS011;37452;51.938;4.624;2023-07-16T12:57:44;4.53;;;0.85;;
41631;SDS011;37452;51.938;4.624;2023-07-16T13:00:09;3.28;;;1.13;;
41631;SDS011;37452;51.938;4.624;2023-07-16T13:02:36;27.42;;;1.98;;
41631;SDS011;37452;51.938;4.624;2023-07-16T13:05:02;4.30;;;1.15;;
41631;SDS011;37452;51.938;4.624;2023-07-16T13:07:27;5.68;;;1.20;;
41631;SDS011;37452;51.938;4.624;2023-07-16T13:09:53;6.68;;;1.27;;
41631;SDS011;37452;51.938;4.624;2023-07-16T13:12:18;4.68;;;1.17;;
41631;SDS011;37452;51.938;4.624;2023-07-16T13:14:44;7.07;;;1.42;;
41631;SDS011;37452;51.938;4.624;2023-07-16T13:17:09;5.70;;;1.05;;
41631;SDS011;37452;51.938;4.624;2023-07-16T13:19:34;6.38;;;1.25;;
41631;SDS011;37452;51.938;4.624;2023-07-16T13:22:00;4.13;;;1.38;;
41631;SDS011;37452;51.938;4.624;2023-07-16T13:24:26;6.10;;;1.45;;
41631;SDS011;37452;51.938;4.624;2023-07-16T13:26:51;6.10;;;1.23;;
41631;SDS011;37452;51.938;4.624;2023-07-16T13:29:16;6.45;;;1.40;;
41631;SDS011;37452;51.938;4.624;2023-07-16T13:31:42;7.00;;;0.95;;
41631;SDS011;37452;51.938;4.624;2023-07-16T13:34:07;2.83;;;1.20;;
41631;SDS011;37452;51.938;4.624;2023-07-16T13:36:32;5.82;;;1.23;;
41631;SDS011;37452;51.938;4.624;2023-07-16T13:38:58;6.80;;;0.98;;
41631;SDS011;37452;51.938;4.624;2023-07-16T13:41:23;4.43;;;1.05;;
41631;SDS011;37452;51.938;4.624;2023-07-16T13:43:48;10.95;;;1.08;;
41631;SDS011;37452;51.938;4.624;2023-07-16T13:46:14;5.28;;;1.00;;
41631;SDS011;37452;51.938;4.624;2023-07-16T13:48:39;6.18;;;1.10;;
41631;SDS011;37452;51.938;4.624;2023-07-16T13:51:04;5.53;;;0.90;;
41631;SDS011;37452;51.938;4.624;2023-07-16T13:53:30;7.38;;;2.08;;
41631;SDS011;37452;51.938;4.624;2023-07-16T13:55:55;8.13;;;1.17;;
41631;SDS011;37452;51.938;4.624;2023-07-16T13:58:21;3.38;;;1.20;;
41631;SDS011;37452;51.938;4.624;2023-07-16T14:00:46;7.20;;;1.38;;
41631;SDS011;37452;51.938;4.624;2023-07-16T14:03:11;10.38;;;1.65;;
41631;SDS011;37452;51.938;4.624;2023-07-16T14:05:36;8.32;;;1.50;;
41631;SDS011;37452;51.938;4.624;2023-07-16T14:08:03;7.13;;;1.13;;
41631;SDS011;37452;51.938;4.624;2023-07-16T14:10:29;4.25;;;1.10;;
41631;SDS011;37452;51.938;4.624;2023-07-16T14:12:55;4.78;;;1.20;;
41631;SDS011;37452;51.938;4.624;2023-07-16T14:15:20;4.40;;;1.40;;
41631;SDS011;37452;51.938;4.624;2023-07-16T14:17:46;7.40;;;1.40;;
41631;SDS011;37452;51.938;4.624;2023-07-16T14:20:11;10.77;;;1.60;;
41631;SDS011;37452;51.938;4.624;2023-07-16T14:22:36;7.10;;;1.88;;
41631;SDS011;37452;51.938;4.624;2023-07-16T14:25:02;10.30;;;1.77;;
41631;SDS011;37452;51.938;4.624;2023-07-16T14:27:27;9.07;;;1.20;;
41631;SDS011;37452;51.938;4.624;2023-07-16T14:29:53;6.50;;;1.20;;
41631;SDS011;37452;51.938;4.624;2023-07-16T14:32:18;3.20;;;1.00;;
41631;SDS011;37452;51.938;4.624;2023-07-16T14:34:44;8.98;;;1.77;;
41631;SDS011;37452;51.938;4.624;2023-07-16T14:37:09;7.20;;;1.67;;
41631;SDS011;37452;51.938;4.624;2023-07-16T14:39:34;5.60;;;1.60;;
41631;SDS011;37452;51.938;4.624;2023-07-16T14:42:00;12.60;;;1.95;;
41631;SDS011;37452;51.938;4.624;2023-07-16T14:44:28;7.85;;;2.00;;
41631;SDS011;37452;51.938;4.624;2023-07-16T14:46:54;8.48;;;1.40;;